Portada
METAR-TAF:

METAR-TAF

Aeroports :

Nosy Be, Madagascar

latitud: 13-19S, longitud: 048-19E, altitud: 10 m

Observació

L'informe es va fer fa 7 hores i 2 minuts, a les 14:00 UTC
Vent 6 kt del Oest
Temperatura 28°C
Humitat 70%
Pressió 1013 hPa
Visibilitat 10 km o més
Escasses núvols a una alçada de 2000 ft

METAR: FMNN 161400Z 27006KT 9999 FEW020 28/22 Q1013

Hora: 00:02 (21:02 UTC)

Pronòstic

L'informe es va fer fa 4 hores i 2 minuts, a les 17:00 UTC
Pronòstic vàlid del 16 a les 18 UTC al 17 a les 18 UTC
Vent 10 kt del Oest
Visibilitat 10 km o més
Escasses núvols a una alçada de 2000 ft
Evolucionant progressivament
l' 17 a les 04 UTC al 17 a les 06 UTC
Vent 8 kt del Nord-Est
Evolucionant progressivament
l' 17 a les 10 UTC al 17 a les 13 UTC
Vent 10 kt del Oest/Nord-Oest

TAF: FMNN 161700Z 1618/1718 28010KT 9999 FEW020 BECMG 1704/1706 04008KT BECMG 1710/1713 30010KT

Observacions i pronòstics meteorològics de més de 4000 aeroports (METAR i TAF).

Les estacions disponibles són els punts grocs i vermells al mapa.

Posi el ratolí al punt desitjat per veure el nom de l'estació.

Feu clic per veure les observacions i els pronòstics meteorològics.

Per canviar el mapa: feu clic els botons verds amb una creu de color negre per apropar; al botó verd amb un guió per allunyar la imatge; o en les fletxes verdes per a mapes adjacents.


METAR-TAF: